sensor_id;sensor_type;location;lat;lon;timestamp;pressure;altitude;pressure_sealevel;temperature;humidity
60246;BME280;46107;53.356;-1.524;2023-03-20T00:01:56;98774.62;;;6.36;65.83
60246;BME280;46107;53.356;-1.524;2023-03-20T00:04:23;98766.73;;;6.79;63.67
60246;BME280;46107;53.356;-1.524;2023-03-20T00:06:51;98762.89;;;6.43;65.31
60246;BME280;46107;53.356;-1.524;2023-03-20T00:09:18;98761.11;;;7.79;61.82
60246;BME280;46107;53.356;-1.524;2023-03-20T00:11:48;98763.42;;;6.86;63.79
60246;BME280;46107;53.356;-1.524;2023-03-20T00:14:18;98763.70;;;6.79;64.58
60246;BME280;46107;53.356;-1.524;2023-03-20T00:16:47;98767.64;;;7.58;62.54
60246;BME280;46107;53.356;-1.524;2023-03-20T00:19:16;98770.98;;;6.59;64.86
60246;BME280;46107;53.356;-1.524;2023-03-20T00:21:44;98766.84;;;8.05;61.01
60246;BME280;46107;53.356;-1.524;2023-03-20T00:24:12;98770.63;;;7.05;61.94
60246;BME280;46107;53.356;-1.524;2023-03-20T00:26:40;98764.59;;;7.99;60.49
60246;BME280;46107;53.356;-1.524;2023-03-20T00:29:16;98769.90;;;7.29;62.67
60246;BME280;46107;53.356;-1.524;2023-03-20T00:31:45;98756.46;;;7.87;61.36
60246;BME280;46107;53.356;-1.524;2023-03-20T00:34:14;98754.63;;;8.03;59.95
60246;BME280;46107;53.356;-1.524;2023-03-20T00:36:43;98757.90;;;6.99;62.66
60246;BME280;46107;53.356;-1.524;2023-03-20T00:39:10;98751.46;;;7.29;63.52
60246;BME280;46107;53.356;-1.524;2023-03-20T00:41:41;98744.81;;;6.77;63.91
60246;BME280;46107;53.356;-1.524;2023-03-20T00:44:19;98734.41;;;8.01;62.06
60246;BME280;46107;53.356;-1.524;2023-03-20T00:46:49;98739.27;;;6.75;65.35
60246;BME280;46107;53.356;-1.524;2023-03-20T00:49:18;98738.35;;;6.70;67.71
60246;BME280;46107;53.356;-1.524;2023-03-20T00:51:46;98741.61;;;6.44;67.74
60246;BME280;46107;53.356;-1.524;2023-03-20T00:54:16;98738.02;;;6.82;67.51
60246;BME280;46107;53.356;-1.524;2023-03-20T00:56:46;98728.39;;;6.83;66.89
60246;BME280;46107;53.356;-1.524;2023-03-20T00:59:18;98714.10;;;6.40;70.34
60246;BME280;46107;53.356;-1.524;2023-03-20T01:01:46;98710.83;;;6.77;69.23
60246;BME280;46107;53.356;-1.524;2023-03-20T01:04:16;98712.12;;;6.10;72.11
60246;BME280;46107;53.356;-1.524;2023-03-20T01:06:44;98708.16;;;6.42;73.41
60246;BME280;46107;53.356;-1.524;2023-03-20T01:09:17;98704.90;;;6.18;72.69
60246;BME280;46107;53.356;-1.524;2023-03-20T01:11:45;98705.27;;;6.06;72.45
60246;BME280;46107;53.356;-1.524;2023-03-20T01:14:17;98700.78;;;6.61;72.30
60246;BME280;46107;53.356;-1.524;2023-03-20T01:16:45;98704.72;;;6.56;72.53
60246;BME280;46107;53.356;-1.524;2023-03-20T01:19:14;98697.21;;;6.48;71.52
60246;BME280;46107;53.356;-1.524;2023-03-20T01:21:42;98692.95;;;6.35;71.94
60246;BME280;46107;53.356;-1.524;2023-03-20T01:24:10;98688.95;;;6.77;71.45
60246;BME280;46107;53.356;-1.524;2023-03-20T01:26:39;98688.68;;;6.33;72.78
60246;BME280;46107;53.356;-1.524;2023-03-20T01:29:15;98688.69;;;5.04;76.87
60246;BME280;46107;53.356;-1.524;2023-03-20T01:31:44;98686.39;;;6.23;71.98
60246;BME280;46107;53.356;-1.524;2023-03-20T01:34:13;98689.01;;;6.40;71.06
60246;BME280;46107;53.356;-1.524;2023-03-20T01:36:43;98691.68;;;5.75;72.81
60246;BME280;46107;53.356;-1.524;2023-03-20T01:39:15;98690.94;;;6.17;72.06
60246;BME280;46107;53.356;-1.524;2023-03-20T01:41:43;98681.75;;;6.87;70.83
60246;BME280;46107;53.356;-1.524;2023-03-20T01:44:18;98681.18;;;6.10;72.41
60246;BME280;46107;53.356;-1.524;2023-03-20T01:46:45;98676.87;;;6.51;71.20
60246;BME280;46107;53.356;-1.524;2023-03-20T01:50:25;98681.54;;;6.33;73.82
60246;BME280;46107;53.356;-1.524;2023-03-20T01:52:59;98676.07;;;6.05;73.41
60246;BME280;46107;53.356;-1.524;2023-03-20T01:55:29;98675.41;;;6.15;74.23
60246;BME280;46107;53.356;-1.524;2023-03-20T01:58:02;98673.87;;;5.39;74.90
60246;BME280;46107;53.356;-1.524;2023-03-20T02:00:30;98667.69;;;5.96;73.76
60246;BME280;46107;53.356;-1.524;2023-03-20T02:02:58;98661.95;;;5.42;77.24
60246;BME280;46107;53.356;-1.524;2023-03-20T02:05:25;98664.12;;;6.14;75.51
60246;BME280;46107;53.356;-1.524;2023-03-20T02:08:04;98658.74;;;5.82;75.32
60246;BME280;46107;53.356;-1.524;2023-03-20T02:10:35;98658.36;;;5.89;75.81
60246;BME280;46107;53.356;-1.524;2023-03-20T02:13:03;98652.91;;;5.72;75.85
60246;BME280;46107;53.356;-1.524;2023-03-20T02:15:31;98648.98;;;5.83;76.40
60246;BME280;46107;53.356;-1.524;2023-03-20T02:17:59;98652.23;;;5.76;76.06
60246;BME280;46107;53.356;-1.524;2023-03-20T02:20:36;98650.29;;;6.45;74.35
60246;BME280;46107;53.356;-1.524;2023-03-20T02:24:32;98651.22;;;5.68;76.55
60246;BME280;46107;53.356;-1.524;2023-03-20T02:27:14;98651.81;;;6.58;73.27
60246;BME280;46107;53.356;-1.524;2023-03-20T02:30:11;98645.09;;;6.76;72.51
60246;BME280;46107;53.356;-1.524;2023-03-20T02:33:09;98644.04;;;6.45;74.35
60246;BME280;46107;53.356;-1.524;2023-03-20T02:36:10;98640.70;;;6.71;73.76
60246;BME280;46107;53.356;-1.524;2023-03-20T02:38:52;98635.09;;;5.78;75.33
60246;BME280;46107;53.356;-1.524;2023-03-20T02:41:27;98630.05;;;6.35;75.08
60246;BME280;46107;53.356;-1.524;2023-03-20T02:44:02;98632.16;;;6.55;73.40
60246;BME280;46107;53.356;-1.524;2023-03-20T02:46:39;98629.79;;;6.34;74.46
60246;BME280;46107;53.356;-1.524;2023-03-20T02:49:17;98629.58;;;6.29;74.48
60246;BME280;46107;53.356;-1.524;2023-03-20T02:51:57;98626.19;;;5.54;78.20
60246;BME280;46107;53.356;-1.524;2023-03-20T02:54:32;98622.20;;;5.88;76.91
60246;BME280;46107;53.356;-1.524;2023-03-20T02:57:07;98622.41;;;6.38;74.77
60246;BME280;46107;53.356;-1.524;2023-03-20T02:59:42;98619.89;;;6.40;74.41
60246;BME280;46107;53.356;-1.524;2023-03-20T03:02:20;98622.80;;;6.33;75.51
60246;BME280;46107;53.356;-1.524;2023-03-20T03:04:51;98618.08;;;6.38;74.24
60246;BME280;46107;53.356;-1.524;2023-03-20T03:07:23;98616.52;;;6.61;72.79
60246;BME280;46107;53.356;-1.524;2023-03-20T03:09:54;98614.36;;;7.12;71.48
60246;BME280;46107;53.356;-1.524;2023-03-20T03:12:23;98608.26;;;7.67;69.83
60246;BME280;46107;53.356;-1.524;2023-03-20T03:14:58;98601.18;;;7.26;70.66
60246;BME280;46107;53.356;-1.524;2023-03-20T03:17:30;98597.45;;;7.62;69.78
60246;BME280;46107;53.356;-1.524;2023-03-20T03:20:02;98597.12;;;7.01;72.23
60246;BME280;46107;53.356;-1.524;2023-03-20T03:22:32;98596.93;;;7.27;72.56
60246;BME280;46107;53.356;-1.524;2023-03-20T03:25:00;98595.49;;;7.54;71.15
60246;BME280;46107;53.356;-1.524;2023-03-20T03:27:33;98591.87;;;7.12;72.13
60246;BME280;46107;53.356;-1.524;2023-03-20T03:30:08;98595.06;;;7.24;69.88
60246;BME280;46107;53.356;-1.524;2023-03-20T03:32:41;98597.14;;;7.31;70.20
60246;BME280;46107;53.356;-1.524;2023-03-20T03:35:14;98594.65;;;7.83;68.25
60246;BME280;46107;53.356;-1.524;2023-03-20T03:37:52;98600.05;;;5.53;76.89
60246;BME280;46107;53.356;-1.524;2023-03-20T03:40:29;98591.42;;;7.06;71.53
60246;BME280;46107;53.356;-1.524;2023-03-20T03:43:02;98592.17;;;7.87;68.86
60246;BME280;46107;53.356;-1.524;2023-03-20T03:45:36;98585.71;;;7.03;71.47
60246;BME280;46107;53.356;-1.524;2023-03-20T03:48:07;98584.51;;;6.55;72.87
60246;BME280;46107;53.356;-1.524;2023-03-20T03:50:41;98586.35;;;7.54;71.63
60246;BME280;46107;53.356;-1.524;2023-03-20T03:53:18;98577.85;;;7.39;70.20
60246;BME280;46107;53.356;-1.524;2023-03-20T03:55:49;98576.66;;;6.61;74.57
60246;BME280;46107;53.356;-1.524;2023-03-20T03:58:20;98569.34;;;7.36;72.07
60246;BME280;46107;53.356;-1.524;2023-03-20T04:00:52;98565.04;;;7.31;71.17
60246;BME280;46107;53.356;-1.524;2023-03-20T04:03:22;98562.76;;;6.25;74.57
60246;BME280;46107;53.356;-1.524;2023-03-20T04:05:53;98558.15;;;5.84;75.25
60246;BME280;46107;53.356;-1.524;2023-03-20T04:08:22;98556.20;;;7.63;70.64
60246;BME280;46107;53.356;-1.524;2023-03-20T04:10:49;98558.87;;;7.41;72.42
60246;BME280;46107;53.356;-1.524;2023-03-20T04:13:17;98553.56;;;7.32;73.93
60246;BME280;46107;53.356;-1.524;2023-03-20T04:15:44;98554.53;;;6.65;73.88
60246;BME280;46107;53.356;-1.524;2023-03-20T04:18:18;98553.85;;;7.28;72.02
60246;BME280;46107;53.356;-1.524;2023-03-20T04:20:46;98550.68;;;6.23;74.75
60246;BME280;46107;53.356;-1.524;2023-03-20T04:23:14;98547.77;;;7.59;71.32
60246;BME280;46107;53.356;-1.524;2023-03-20T04:25:41;98549.93;;;6.28;77.48
60246;BME280;46107;53.356;-1.524;2023-03-20T04:28:08;98543.29;;;7.36;74.05
60246;BME280;46107;53.356;-1.524;2023-03-20T04:30:36;98545.07;;;7.01;73.75
60246;BME280;46107;53.356;-1.524;2023-03-20T04:33:04;98544.44;;;7.70;72.30
60246;BME280;46107;53.356;-1.524;2023-03-20T04:35:31;98549.57;;;7.50;70.82
60246;BME280;46107;53.356;-1.524;2023-03-20T04:37:59;98548.73;;;6.37;74.50
60246;BME280;46107;53.356;-1.524;2023-03-20T04:40:26;98550.60;;;6.60;73.19
60246;BME280;46107;53.356;-1.524;2023-03-20T04:42:54;98546.71;;;6.02;74.98
60246;BME280;46107;53.356;-1.524;2023-03-20T04:45:21;98547.33;;;7.97;69.06
60246;BME280;46107;53.356;-1.524;2023-03-20T04:47:49;98545.63;;;7.41;71.33
60246;BME280;46107;53.356;-1.524;2023-03-20T04:50:16;98545.29;;;7.94;69.51
60246;BME280;46107;53.356;-1.524;2023-03-20T04:52:44;98547.59;;;6.92;71.83
60246;BME280;46107;53.356;-1.524;2023-03-20T04:55:13;98546.41;;;7.83;70.53
60246;BME280;46107;53.356;-1.524;2023-03-20T04:57:41;98546.58;;;7.86;70.75
60246;BME280;46107;53.356;-1.524;2023-03-20T05:00:09;98550.73;;;5.64;75.03
60246;BME280;46107;53.356;-1.524;2023-03-20T05:02:36;98551.82;;;7.72;72.46
60246;BME280;46107;53.356;-1.524;2023-03-20T05:05:04;98547.49;;;7.25;70.80
60246;BME280;46107;53.356;-1.524;2023-03-20T05:07:31;98550.00;;;7.50;71.62
60246;BME280;46107;53.356;-1.524;2023-03-20T05:09:58;98546.61;;;7.71;69.94
60246;BME280;46107;53.356;-1.524;2023-03-20T05:12:26;98540.61;;;8.06;69.14
60246;BME280;46107;53.356;-1.524;2023-03-20T05:14:53;98542.22;;;7.39;70.99
60246;BME280;46107;53.356;-1.524;2023-03-20T05:17:22;98539.13;;;8.17;70.14
60246;BME280;46107;53.356;-1.524;2023-03-20T05:19:49;98537.19;;;7.81;71.24
60246;BME280;46107;53.356;-1.524;2023-03-20T05:22:18;98537.84;;;7.16;73.30
60246;BME280;46107;53.356;-1.524;2023-03-20T05:24:45;98543.03;;;7.75;71.36
60246;BME280;46107;53.356;-1.524;2023-03-20T05:27:13;98545.36;;;7.78;71.63
60246;BME280;46107;53.356;-1.524;2023-03-20T05:29:41;98545.07;;;8.04;70.07
60246;BME280;46107;53.356;-1.524;2023-03-20T05:32:08;98547.58;;;7.67;69.75
60246;BME280;46107;53.356;-1.524;2023-03-20T05:34:36;98547.45;;;7.65;70.71
60246;BME280;46107;53.356;-1.524;2023-03-20T05:37:04;98543.56;;;8.23;69.18
60246;BME280;46107;53.356;-1.524;2023-03-20T05:39:31;98550.80;;;7.70;70.26
60246;BME280;46107;53.356;-1.524;2023-03-20T05:41:58;98547.46;;;7.69;71.48
60246;BME280;46107;53.356;-1.524;2023-03-20T05:44:26;98539.72;;;8.94;68.27
60246;BME280;46107;53.356;-1.524;2023-03-20T05:46:53;98537.78;;;8.20;69.71
60246;BME280;46107;53.356;-1.524;2023-03-20T05:49:21;98537.08;;;9.02;68.06
60246;BME280;46107;53.356;-1.524;2023-03-20T05:51:48;98542.44;;;7.96;70.45
60246;BME280;46107;53.356;-1.524;2023-03-20T05:54:16;98538.25;;;9.02;67.48
60246;BME280;46107;53.356;-1.524;2023-03-20T05:56:43;98536.70;;;8.21;68.42
60246;BME280;46107;53.356;-1.524;2023-03-20T05:59:12;98534.14;;;8.56;66.74
60246;BME280;46107;53.356;-1.524;2023-03-20T06:01:39;98535.42;;;8.92;66.36
60246;BME280;46107;53.356;-1.524;2023-03-20T06:04:07;98536.69;;;8.91;67.34
60246;BME280;46107;53.356;-1.524;2023-03-20T06:06:34;98538.14;;;8.04;68.27
60246;BME280;46107;53.356;-1.524;2023-03-20T06:09:02;98540.27;;;8.55;68.89
60246;BME280;46107;53.356;-1.524;2023-03-20T06:11:29;98539.51;;;8.84;66.56
60246;BME280;46107;53.356;-1.524;2023-03-20T06:13:58;98543.28;;;8.41;67.01
60246;BME280;46107;53.356;-1.524;2023-03-20T06:16:25;98542.18;;;8.73;66.97
60246;BME280;46107;53.356;-1.524;2023-03-20T06:18:52;98546.11;;;8.22;68.11
60246;BME280;46107;53.356;-1.524;2023-03-20T06:21:20;98545.42;;;8.59;67.24
60246;BME280;46107;53.356;-1.524;2023-03-20T06:23:47;98546.87;;;8.81;66.05
60246;BME280;46107;53.356;-1.524;2023-03-20T06:26:15;98540.98;;;8.33;66.46
60246;BME280;46107;53.356;-1.524;2023-03-20T06:28:43;98545.05;;;9.11;66.50
60246;BME280;46107;53.356;-1.524;2023-03-20T06:31:10;98547.74;;;9.40;64.93
60246;BME280;46107;53.356;-1.524;2023-03-20T06:33:38;98547.98;;;9.38;66.06
60246;BME280;46107;53.356;-1.524;2023-03-20T06:36:06;98544.22;;;8.66;67.15
60246;BME280;46107;53.356;-1.524;2023-03-20T06:38:33;98548.20;;;8.43;68.92
60246;BME280;46107;53.356;-1.524;2023-03-20T06:41:00;98552.97;;;8.10;68.28
60246;BME280;46107;53.356;-1.524;2023-03-20T06:43:28;98560.78;;;7.48;71.65
60246;BME280;46107;53.356;-1.524;2023-03-20T06:45:55;98560.26;;;8.07;70.63
60246;BME280;46107;53.356;-1.524;2023-03-20T06:48:23;98563.65;;;8.76;69.08
60246;BME280;46107;53.356;-1.524;2023-03-20T06:50:51;98563.53;;;8.85;67.85
60246;BME280;46107;53.356;-1.524;2023-03-20T06:53:19;98568.29;;;7.16;72.78
60246;BME280;46107;53.356;-1.524;2023-03-20T06:55:46;98566.68;;;8.83;68.50
60246;BME280;46107;53.356;-1.524;2023-03-20T06:58:14;98570.01;;;8.92;67.77
60246;BME280;46107;53.356;-1.524;2023-03-20T07:00:42;98573.63;;;7.69;71.28
60246;BME280;46107;53.356;-1.524;2023-03-20T07:03:10;98573.41;;;8.04;73.56
60246;BME280;46107;53.356;-1.524;2023-03-20T07:05:40;98571.67;;;8.55;70.27
60246;BME280;46107;53.356;-1.524;2023-03-20T07:08:07;98575.90;;;8.54;69.81
60246;BME280;46107;53.356;-1.524;2023-03-20T07:10:35;98575.03;;;8.84;68.16
60246;BME280;46107;53.356;-1.524;2023-03-20T07:13:03;98576.40;;;8.54;69.29
60246;BME280;46107;53.356;-1.524;2023-03-20T07:15:30;98585.99;;;7.54;73.00
60246;BME280;46107;53.356;-1.524;2023-03-20T07:17:58;98582.03;;;8.60;69.96
60246;BME280;46107;53.356;-1.524;2023-03-20T07:20:25;98586.72;;;7.73;72.21
60246;BME280;46107;53.356;-1.524;2023-03-20T07:22:53;98590.15;;;7.93;74.20
60246;BME280;46107;53.356;-1.524;2023-03-20T07:25:20;98593.14;;;7.09;76.19
60246;BME280;46107;53.356;-1.524;2023-03-20T07:27:48;98598.40;;;7.75;75.06
60246;BME280;46107;53.356;-1.524;2023-03-20T07:30:15;98594.55;;;7.78;74.91
60246;BME280;46107;53.356;-1.524;2023-03-20T07:32:43;98597.72;;;7.94;73.43
60246;BME280;46107;53.356;-1.524;2023-03-20T07:35:13;98588.70;;;9.25;70.18
60246;BME280;46107;53.356;-1.524;2023-03-20T07:37:40;98595.52;;;8.35;72.69
60246;BME280;46107;53.356;-1.524;2023-03-20T07:40:10;98591.74;;;9.61;67.89
60246;BME280;46107;53.356;-1.524;2023-03-20T07:42:37;98582.75;;;8.83;69.26
60246;BME280;46107;53.356;-1.524;2023-03-20T07:45:06;98581.68;;;8.24;70.88
60246;BME280;46107;53.356;-1.524;2023-03-20T07:47:33;98582.24;;;9.40;69.27
60246;BME280;46107;53.356;-1.524;2023-03-20T07:50:01;98581.05;;;9.82;67.86
60246;BME280;46107;53.356;-1.524;2023-03-20T07:52:29;98584.04;;;9.89;67.46
60246;BME280;46107;53.356;-1.524;2023-03-20T07:54:57;98582.80;;;9.05;69.93
60246;BME280;46107;53.356;-1.524;2023-03-20T07:57:24;98584.59;;;8.81;71.79
60246;BME280;46107;53.356;-1.524;2023-03-20T07:59:52;98586.43;;;8.54;72.68
60246;BME280;46107;53.356;-1.524;2023-03-20T08:02:19;98589.13;;;9.79;69.91
60246;BME280;46107;53.356;-1.524;2023-03-20T08:04:47;98587.34;;;9.63;69.20
60246;BME280;46107;53.356;-1.524;2023-03-20T08:07:14;98590.12;;;9.70;69.50
60246;BME280;46107;53.356;-1.524;2023-03-20T08:09:42;98585.53;;;10.14;67.42
60246;BME280;46107;53.356;-1.524;2023-03-20T08:12:09;98586.79;;;10.38;65.50
60246;BME280;46107;53.356;-1.524;2023-03-20T08:14:37;98584.13;;;10.54;64.55
60246;BME280;46107;53.356;-1.524;2023-03-20T08:17:04;98588.10;;;10.27;65.58
60246;BME280;46107;53.356;-1.524;2023-03-20T08:19:32;98584.64;;;10.20;66.35
60246;BME280;46107;53.356;-1.524;2023-03-20T08:21:59;98586.49;;;9.61;67.60
60246;BME280;46107;53.356;-1.524;2023-03-20T08:24:27;98589.54;;;10.18;67.42
60246;BME280;46107;53.356;-1.524;2023-03-20T08:26:54;98592.65;;;10.37;65.98
60246;BME280;46107;53.356;-1.524;2023-03-20T08:29:22;98597.68;;;10.45;65.44
60246;BME280;46107;53.356;-1.524;2023-03-20T08:31:49;98601.08;;;10.06;66.74
60246;BME280;46107;53.356;-1.524;2023-03-20T08:34:17;98594.49;;;9.32;70.90
60246;BME280;46107;53.356;-1.524;2023-03-20T08:36:44;98596.38;;;9.20;70.24
60246;BME280;46107;53.356;-1.524;2023-03-20T08:39:13;98599.63;;;9.86;68.22
60246;BME280;46107;53.356;-1.524;2023-03-20T08:41:40;98596.61;;;10.03;68.19
60246;BME280;46107;53.356;-1.524;2023-03-20T08:44:08;98594.22;;;9.83;69.12
60246;BME280;46107;53.356;-1.524;2023-03-20T08:46:35;98591.98;;;9.09;72.68
60246;BME280;46107;53.356;-1.524;2023-03-20T08:49:03;98596.02;;;10.23;69.27
60246;BME280;46107;53.356;-1.524;2023-03-20T08:51:31;98599.81;;;9.72;70.47
60246;BME280;46107;53.356;-1.524;2023-03-20T08:53:58;98600.00;;;10.33;71.82
60246;BME280;46107;53.356;-1.524;2023-03-20T08:56:26;98602.46;;;9.55;75.01
60246;BME280;46107;53.356;-1.524;2023-03-20T08:58:54;98603.04;;;10.02;74.26
60246;BME280;46107;53.356;-1.524;2023-03-20T09:01:23;98604.83;;;9.18;76.57
60246;BME280;46107;53.356;-1.524;2023-03-20T09:03:51;98605.99;;;9.74;75.63
60246;BME280;46107;53.356;-1.524;2023-03-20T09:06:18;98604.69;;;9.56;76.17
60246;BME280;46107;53.356;-1.524;2023-03-20T09:08:45;98605.60;;;9.57;75.81
60246;BME280;46107;53.356;-1.524;2023-03-20T09:11:13;98605.98;;;9.44;74.88
60246;BME280;46107;53.356;-1.524;2023-03-20T09:13:40;98602.59;;;9.95;74.78
60246;BME280;46107;53.356;-1.524;2023-03-20T09:16:08;98603.29;;;10.24;74.16
60246;BME280;46107;53.356;-1.524;2023-03-20T09:18:36;98600.83;;;9.75;74.59
60246;BME280;46107;53.356;-1.524;2023-03-20T09:21:04;98600.46;;;10.35;73.16
60246;BME280;46107;53.356;-1.524;2023-03-20T09:23:32;98603.86;;;10.33;73.98
60246;BME280;46107;53.356;-1.524;2023-03-20T09:26:00;98605.76;;;10.15;73.06
60246;BME280;46107;53.356;-1.524;2023-03-20T09:28:27;98608.08;;;9.96;73.99
60246;BME280;46107;53.356;-1.524;2023-03-20T09:30:55;98611.44;;;10.49;71.87
60246;BME280;46107;53.356;-1.524;2023-03-20T09:33:24;98606.67;;;9.81;73.45
60246;BME280;46107;53.356;-1.524;2023-03-20T09:35:52;98599.35;;;10.42;71.30
60246;BME280;46107;53.356;-1.524;2023-03-20T09:38:20;98602.82;;;11.30;71.08
60246;BME280;46107;53.356;-1.524;2023-03-20T09:40:51;98613.27;;;10.54;72.28
60246;BME280;46107;53.356;-1.524;2023-03-20T09:43:29;98611.36;;;10.62;71.54
60246;BME280;46107;53.356;-1.524;2023-03-20T09:46:06;98609.45;;;11.19;68.26
60246;BME280;46107;53.356;-1.524;2023-03-20T09:48:45;98617.69;;;10.13;71.83
60246;BME280;46107;53.356;-1.524;2023-03-20T09:51:22;98616.55;;;11.22;68.70
60246;BME280;46107;53.356;-1.524;2023-03-20T09:53:54;98620.38;;;10.34;69.80
60246;BME280;46107;53.356;-1.524;2023-03-20T09:56:25;98610.43;;;10.86;69.63
60246;BME280;46107;53.356;-1.524;2023-03-20T09:58:55;98611.08;;;9.86;74.69
60246;BME280;46107;53.356;-1.524;2023-03-20T10:01:26;98615.47;;;10.70;72.33
60246;BME280;46107;53.356;-1.524;2023-03-20T10:03:58;98614.05;;;10.87;72.11
60246;BME280;46107;53.356;-1.524;2023-03-20T10:06:27;98628.61;;;10.83;73.23
60246;BME280;46107;53.356;-1.524;2023-03-20T10:08:55;98622.51;;;10.96;71.39
60246;BME280;46107;53.356;-1.524;2023-03-20T10:11:32;98625.12;;;11.01;71.76
60246;BME280;46107;53.356;-1.524;2023-03-20T10:14:10;98623.73;;;10.79;72.68
60246;BME280;46107;53.356;-1.524;2023-03-20T10:16:48;98625.07;;;9.89;76.45
60246;BME280;46107;53.356;-1.524;2023-03-20T10:19:23;98622.15;;;11.26;70.97
60246;BME280;46107;53.356;-1.524;2023-03-20T10:21:59;98634.99;;;10.40;74.09
60246;BME280;46107;53.356;-1.524;2023-03-20T10:24:31;98643.45;;;10.84;73.72
60246;BME280;46107;53.356;-1.524;2023-03-20T10:27:05;98641.67;;;10.97;72.20
60246;BME280;46107;53.356;-1.524;2023-03-20T10:29:45;98642.87;;;10.21;75.76
60246;BME280;46107;53.356;-1.524;2023-03-20T10:32:21;98644.12;;;11.17;70.81
60246;BME280;46107;53.356;-1.524;2023-03-20T10:35:00;98651.55;;;10.54;72.74
60246;BME280;46107;53.356;-1.524;2023-03-20T10:37:39;98645.99;;;11.45;69.42
60246;BME280;46107;53.356;-1.524;2023-03-20T10:40:22;98656.72;;;10.69;72.76
60246;BME280;46107;53.356;-1.524;2023-03-20T10:42:52;98644.82;;;11.81;68.05
60246;BME280;46107;53.356;-1.524;2023-03-20T10:45:29;98645.26;;;12.25;66.08
60246;BME280;46107;53.356;-1.524;2023-03-20T10:48:02;98638.79;;;11.80;69.05
60246;BME280;46107;53.356;-1.524;2023-03-20T10:50:34;98636.82;;;11.78;68.76
60246;BME280;46107;53.356;-1.524;2023-03-20T10:53:04;98629.23;;;11.53;69.21
60246;BME280;46107;53.356;-1.524;2023-03-20T10:55:35;98628.89;;;12.29;67.70
60246;BME280;46107;53.356;-1.524;2023-03-20T10:58:14;98625.74;;;12.03;67.81
60246;BME280;46107;53.356;-1.524;2023-03-20T11:00:43;98632.14;;;11.59;69.20
60246;BME280;46107;53.356;-1.524;2023-03-20T11:03:19;98634.43;;;13.05;65.16
60246;BME280;46107;53.356;-1.524;2023-03-20T11:05:52;98629.50;;;13.09;63.44
60246;BME280;46107;53.356;-1.524;2023-03-20T11:08:23;98629.42;;;11.85;68.15
60246;BME280;46107;53.356;-1.524;2023-03-20T11:10:58;98626.26;;;12.21;65.66
60246;BME280;46107;53.356;-1.524;2023-03-20T11:13:30;98629.65;;;13.17;64.32
60246;BME280;46107;53.356;-1.524;2023-03-20T11:16:10;98630.96;;;12.62;66.27
60246;BME280;46107;53.356;-1.524;2023-03-20T11:18:40;98631.09;;;12.65;65.58
60246;BME280;46107;53.356;-1.524;2023-03-20T11:21:14;98623.81;;;12.92;63.34
60246;BME280;46107;53.356;-1.524;2023-03-20T11:23:43;98621.52;;;12.99;63.09
60246;BME280;46107;53.356;-1.524;2023-03-20T11:26:13;98614.92;;;12.35;66.87
60246;BME280;46107;53.356;-1.524;2023-03-20T11:28:46;98612.80;;;12.74;66.20
60246;BME280;46107;53.356;-1.524;2023-03-20T11:31:18;98603.41;;;12.16;69.08
60246;BME280;46107;53.356;-1.524;2023-03-20T11:33:51;98606.02;;;10.68;73.72
60246;BME280;46107;53.356;-1.524;2023-03-20T11:36:23;98593.46;;;11.89;72.10
60246;BME280;46107;53.356;-1.524;2023-03-20T11:38:52;98591.70;;;12.17;69.87
60246;BME280;46107;53.356;-1.524;2023-03-20T11:41:24;98592.47;;;10.37;74.21
60246;BME280;46107;53.356;-1.524;2023-03-20T11:43:53;98595.01;;;11.28;72.41
60246;BME280;46107;53.356;-1.524;2023-03-20T11:46:22;98598.39;;;10.61;74.36
60246;BME280;46107;53.356;-1.524;2023-03-20T11:49:19;98596.80;;;11.09;73.89
60246;BME280;46107;53.356;-1.524;2023-03-20T11:51:47;98601.80;;;12.21;69.84
60246;BME280;46107;53.356;-1.524;2023-03-20T11:54:18;98600.13;;;11.08;72.34
60246;BME280;46107;53.356;-1.524;2023-03-20T11:56:55;98607.04;;;12.27;69.35
60246;BME280;46107;53.356;-1.524;2023-03-20T11:59:28;98607.83;;;11.74;69.83
60246;BME280;46107;53.356;-1.524;2023-03-20T12:01:57;98606.66;;;12.74;66.49
60246;BME280;46107;53.356;-1.524;2023-03-20T12:04:28;98609.69;;;12.09;67.88
60246;BME280;46107;53.356;-1.524;2023-03-20T12:06:59;98607.93;;;11.68;66.68
60246;BME280;46107;53.356;-1.524;2023-03-20T12:09:38;98601.77;;;10.80;72.92
60246;BME280;46107;53.356;-1.524;2023-03-20T12:12:16;98606.32;;;11.46;71.59
60246;BME280;46107;53.356;-1.524;2023-03-20T12:14:52;98603.22;;;12.23;69.05
60246;BME280;46107;53.356;-1.524;2023-03-20T12:17:32;98598.81;;;11.72;70.68
60246;BME280;46107;53.356;-1.524;2023-03-20T12:20:06;98591.22;;;12.08;69.01
60246;BME280;46107;53.356;-1.524;2023-03-20T12:22:46;98593.35;;;11.40;72.27
60246;BME280;46107;53.356;-1.524;2023-03-20T12:25:21;98589.60;;;11.85;71.88
60246;BME280;46107;53.356;-1.524;2023-03-20T12:27:56;98587.74;;;11.54;73.23
60246;BME280;46107;53.356;-1.524;2023-03-20T12:30:34;98588.43;;;12.10;71.38
60246;BME280;46107;53.356;-1.524;2023-03-20T12:33:23;98591.39;;;11.83;71.36
60246;BME280;46107;53.356;-1.524;2023-03-20T12:35:53;98590.30;;;12.96;68.11
60246;BME280;46107;53.356;-1.524;2023-03-20T12:38:27;98596.02;;;12.76;69.75
60246;BME280;46107;53.356;-1.524;2023-03-20T12:41:00;98598.01;;;12.67;67.99
60246;BME280;46107;53.356;-1.524;2023-03-20T12:43:36;98593.24;;;12.95;66.22
60246;BME280;46107;53.356;-1.524;2023-03-20T12:46:16;98596.40;;;12.84;65.07
60246;BME280;46107;53.356;-1.524;2023-03-20T12:48:54;98592.42;;;13.18;64.29
60246;BME280;46107;53.356;-1.524;2023-03-20T12:51:41;98595.34;;;12.98;64.72
60246;BME280;46107;53.356;-1.524;2023-03-20T12:54:30;98590.08;;;13.35;64.61
60246;BME280;46107;53.356;-1.524;2023-03-20T12:57:06;98591.94;;;12.31;66.49
60246;BME280;46107;53.356;-1.524;2023-03-20T12:59:46;98591.07;;;12.87;63.44
60246;BME280;46107;53.356;-1.524;2023-03-20T13:02:33;98587.43;;;13.14;63.47
60246;BME280;46107;53.356;-1.524;2023-03-20T13:05:13;98588.66;;;13.64;61.39
60246;BME280;46107;53.356;-1.524;2023-03-20T13:07:58;98585.41;;;13.73;60.90
60246;BME280;46107;53.356;-1.524;2023-03-20T13:10:33;98580.42;;;13.80;60.75
60246;BME280;46107;53.356;-1.524;2023-03-20T13:13:12;98585.37;;;13.70;59.53
60246;BME280;46107;53.356;-1.524;2023-03-20T13:15:50;98583.47;;;13.94;59.39
60246;BME280;46107;53.356;-1.524;2023-03-20T13:18:22;98582.20;;;13.35;60.96
60246;BME280;46107;53.356;-1.524;2023-03-20T13:20:56;98584.26;;;13.70;59.00